sensor_id;sensor_type;location;lat;lon;timestamp;P1;durP1;ratioP1;P2;durP2;ratioP2
84357;SDS011;74548;47.712;9.272;2024-03-02T00:01:06;2.38;;;1.40;;
84357;SDS011;74548;47.712;9.272;2024-03-02T00:03:32;2.50;;;1.45;;
84357;SDS011;74548;47.712;9.272;2024-03-02T00:05:58;3.30;;;1.50;;
84357;SDS011;74548;47.712;9.272;2024-03-02T00:08:24;2.47;;;1.70;;
84357;SDS011;74548;47.712;9.272;2024-03-02T00:10:56;2.40;;;1.35;;
84357;SDS011;74548;47.712;9.272;2024-03-02T00:13:23;3.30;;;1.42;;
84357;SDS011;74548;47.712;9.272;2024-03-02T00:15:53;2.22;;;1.40;;
84357;SDS011;74548;47.712;9.272;2024-03-02T00:18:40;2.60;;;1.38;;
84357;SDS011;74548;47.712;9.272;2024-03-02T00:21:05;2.40;;;1.60;;
84357;SDS011;74548;47.712;9.272;2024-03-02T00:23:34;2.72;;;1.40;;
84357;SDS011;74548;47.712;9.272;2024-03-02T00:26:00;2.78;;;1.70;;
84357;SDS011;74548;47.712;9.272;2024-03-02T00:28:30;3.15;;;1.80;;
84357;SDS011;74548;47.712;9.272;2024-03-02T00:31:03;2.38;;;1.52;;
84357;SDS011;74548;47.712;9.272;2024-03-02T00:33:33;5.43;;;1.80;;
84357;SDS011;74548;47.712;9.272;2024-03-02T00:36:02;2.33;;;1.58;;
84357;SDS011;74548;47.712;9.272;2024-03-02T00:38:30;2.17;;;1.38;;
84357;SDS011;74548;47.712;9.272;2024-03-02T00:40:58;2.15;;;1.58;;
84357;SDS011;74548;47.712;9.272;2024-03-02T00:46:10;2.30;;;1.77;;
84357;SDS011;74548;47.712;9.272;2024-03-02T00:48:36;1.85;;;1.25;;
84357;SDS011;74548;47.712;9.272;2024-03-02T00:51:02;1.80;;;1.40;;
84357;SDS011;74548;47.712;9.272;2024-03-02T00:53:31;2.58;;;1.40;;
84357;SDS011;74548;47.712;9.272;2024-03-02T00:56:00;2.28;;;1.40;;
84357;SDS011;74548;47.712;9.272;2024-03-02T00:58:26;2.75;;;1.63;;
84357;SDS011;74548;47.712;9.272;2024-03-02T01:00:51;2.37;;;1.53;;
84357;SDS011;74548;47.712;9.272;2024-03-02T01:03:17;2.93;;;1.73;;
84357;SDS011;74548;47.712;9.272;2024-03-02T01:05:44;2.58;;;1.90;;
84357;SDS011;74548;47.712;9.272;2024-03-02T01:10:29;2.13;;;1.52;;
84357;SDS011;74548;47.712;9.272;2024-03-02T01:12:54;3.75;;;1.73;;
84357;SDS011;74548;47.712;9.272;2024-03-02T01:15:19;2.25;;;1.45;;
84357;SDS011;74548;47.712;9.272;2024-03-02T01:17:45;2.17;;;1.48;;
84357;SDS011;74548;47.712;9.272;2024-03-02T01:20:11;2.95;;;1.50;;
84357;SDS011;74548;47.712;9.272;2024-03-02T01:22:36;2.63;;;1.52;;
84357;SDS011;74548;47.712;9.272;2024-03-02T01:25:02;2.55;;;1.52;;
84357;SDS011;74548;47.712;9.272;2024-03-02T01:27:27;3.65;;;1.88;;
84357;SDS011;74548;47.712;9.272;2024-03-02T01:29:53;3.20;;;1.77;;
84357;SDS011;74548;47.712;9.272;2024-03-02T01:32:19;2.08;;;1.52;;
84357;SDS011;74548;47.712;9.272;2024-03-02T01:34:45;2.78;;;1.55;;
84357;SDS011;74548;47.712;9.272;2024-03-02T01:37:10;2.75;;;1.67;;
84357;SDS011;74548;47.712;9.272;2024-03-02T01:39:36;2.60;;;1.30;;
84357;SDS011;74548;47.712;9.272;2024-03-02T01:42:01;3.50;;;1.50;;
84357;SDS011;74548;47.712;9.272;2024-03-02T01:44:26;2.13;;;1.50;;
84357;SDS011;74548;47.712;9.272;2024-03-02T01:46:52;3.22;;;1.83;;
84357;SDS011;74548;47.712;9.272;2024-03-02T01:49:17;2.30;;;1.45;;
84357;SDS011;74548;47.712;9.272;2024-03-02T01:51:43;2.65;;;1.63;;
84357;SDS011;74548;47.712;9.272;2024-03-02T01:54:09;1.95;;;1.40;;
84357;SDS011;74548;47.712;9.272;2024-03-02T01:56:34;3.08;;;1.70;;
84357;SDS011;74548;47.712;9.272;2024-03-02T01:59:00;2.42;;;1.52;;
84357;SDS011;74548;47.712;9.272;2024-03-02T02:01:25;1.93;;;1.33;;
84357;SDS011;74548;47.712;9.272;2024-03-02T02:03:51;2.92;;;1.65;;
84357;SDS011;74548;47.712;9.272;2024-03-02T02:06:17;2.83;;;1.65;;
84357;SDS011;74548;47.712;9.272;2024-03-02T02:08:42;2.42;;;1.60;;
84357;SDS011;74548;47.712;9.272;2024-03-02T02:11:08;2.17;;;1.50;;
84357;SDS011;74548;47.712;9.272;2024-03-02T02:13:33;2.53;;;1.98;;
84357;SDS011;74548;47.712;9.272;2024-03-02T02:16:08;2.42;;;1.60;;
84357;SDS011;74548;47.712;9.272;2024-03-02T02:18:33;3.35;;;2.03;;
84357;SDS011;74548;47.712;9.272;2024-03-02T02:21:00;2.03;;;1.42;;
84357;SDS011;74548;47.712;9.272;2024-03-02T02:23:26;2.40;;;1.60;;
84357;SDS011;74548;47.712;9.272;2024-03-02T02:25:51;3.23;;;1.80;;
84357;SDS011;74548;47.712;9.272;2024-03-02T02:28:17;3.53;;;1.80;;
84357;SDS011;74548;47.712;9.272;2024-03-02T02:30:42;2.30;;;1.70;;
84357;SDS011;74548;47.712;9.272;2024-03-02T02:33:08;2.10;;;1.58;;
84357;SDS011;74548;47.712;9.272;2024-03-02T02:35:34;2.83;;;1.92;;
84357;SDS011;74548;47.712;9.272;2024-03-02T02:37:59;2.55;;;1.70;;
84357;SDS011;74548;47.712;9.272;2024-03-02T02:40:26;2.08;;;1.40;;
84357;SDS011;74548;47.712;9.272;2024-03-02T02:42:51;2.92;;;1.77;;
84357;SDS011;74548;47.712;9.272;2024-03-02T02:45:17;3.13;;;1.88;;
84357;SDS011;74548;47.712;9.272;2024-03-02T02:47:42;2.83;;;1.73;;
84357;SDS011;74548;47.712;9.272;2024-03-02T02:50:09;2.78;;;2.00;;
84357;SDS011;74548;47.712;9.272;2024-03-02T02:52:36;2.00;;;1.60;;
84357;SDS011;74548;47.712;9.272;2024-03-02T02:57:31;3.13;;;1.85;;
84357;SDS011;74548;47.712;9.272;2024-03-02T03:00:06;2.83;;;1.80;;
84357;SDS011;74548;47.712;9.272;2024-03-02T03:02:43;2.60;;;1.77;;
84357;SDS011;74548;47.712;9.272;2024-03-02T03:05:10;3.50;;;2.05;;
84357;SDS011;74548;47.712;9.272;2024-03-02T03:07:37;3.33;;;1.85;;
84357;SDS011;74548;47.712;9.272;2024-03-02T03:10:03;3.05;;;1.90;;
84357;SDS011;74548;47.712;9.272;2024-03-02T03:12:29;2.47;;;1.80;;
84357;SDS011;74548;47.712;9.272;2024-03-02T03:14:55;2.15;;;1.83;;
84357;SDS011;74548;47.712;9.272;2024-03-02T03:19:42;2.55;;;1.75;;
84357;SDS011;74548;47.712;9.272;2024-03-02T03:22:07;2.60;;;2.05;;
84357;SDS011;74548;47.712;9.272;2024-03-02T03:24:33;2.92;;;1.80;;
84357;SDS011;74548;47.712;9.272;2024-03-02T03:26:58;2.97;;;2.00;;
84357;SDS011;74548;47.712;9.272;2024-03-02T03:29:23;3.40;;;2.33;;
84357;SDS011;74548;47.712;9.272;2024-03-02T03:31:49;3.57;;;1.73;;
84357;SDS011;74548;47.712;9.272;2024-03-02T03:34:14;3.47;;;2.17;;
84357;SDS011;74548;47.712;9.272;2024-03-02T03:36:41;3.78;;;2.40;;
84357;SDS011;74548;47.712;9.272;2024-03-02T03:39:06;3.25;;;2.10;;
84357;SDS011;74548;47.712;9.272;2024-03-02T03:41:31;3.23;;;2.03;;
84357;SDS011;74548;47.712;9.272;2024-03-02T03:43:57;2.55;;;1.80;;
84357;SDS011;74548;47.712;9.272;2024-03-02T03:46:22;2.90;;;2.00;;
84357;SDS011;74548;47.712;9.272;2024-03-02T03:48:47;2.60;;;1.80;;
84357;SDS011;74548;47.712;9.272;2024-03-02T03:51:13;3.08;;;1.83;;
84357;SDS011;74548;47.712;9.272;2024-03-02T03:53:39;2.17;;;1.70;;
84357;SDS011;74548;47.712;9.272;2024-03-02T03:56:04;3.47;;;2.15;;
84357;SDS011;74548;47.712;9.272;2024-03-02T03:58:30;2.55;;;2.08;;
84357;SDS011;74548;47.712;9.272;2024-03-02T04:00:55;2.92;;;1.92;;
84357;SDS011;74548;47.712;9.272;2024-03-02T04:03:21;3.25;;;2.17;;
84357;SDS011;74548;47.712;9.272;2024-03-02T04:05:47;2.42;;;1.75;;
84357;SDS011;74548;47.712;9.272;2024-03-02T04:08:12;2.20;;;1.70;;
84357;SDS011;74548;47.712;9.272;2024-03-02T04:10:38;2.55;;;1.70;;
84357;SDS011;74548;47.712;9.272;2024-03-02T04:13:03;2.67;;;1.92;;
84357;SDS011;74548;47.712;9.272;2024-03-02T04:15:28;2.40;;;1.70;;
84357;SDS011;74548;47.712;9.272;2024-03-02T04:17:54;3.23;;;2.10;;
84357;SDS011;74548;47.712;9.272;2024-03-02T04:20:20;3.90;;;2.00;;
84357;SDS011;74548;47.712;9.272;2024-03-02T04:22:45;2.22;;;1.70;;
84357;SDS011;74548;47.712;9.272;2024-03-02T04:25:10;2.77;;;1.97;;
84357;SDS011;74548;47.712;9.272;2024-03-02T04:27:36;2.70;;;2.00;;
84357;SDS011;74548;47.712;9.272;2024-03-02T04:32:24;2.70;;;1.92;;
84357;SDS011;74548;47.712;9.272;2024-03-02T04:34:49;2.90;;;1.90;;
84357;SDS011;74548;47.712;9.272;2024-03-02T04:37:15;2.83;;;2.10;;
84357;SDS011;74548;47.712;9.272;2024-03-02T04:39:40;3.08;;;1.90;;
84357;SDS011;74548;47.712;9.272;2024-03-02T04:42:06;2.55;;;1.80;;
84357;SDS011;74548;47.712;9.272;2024-03-02T04:44:31;2.13;;;1.80;;
84357;SDS011;74548;47.712;9.272;2024-03-02T04:46:56;3.37;;;2.10;;
84357;SDS011;74548;47.712;9.272;2024-03-02T04:49:22;2.95;;;2.10;;
84357;SDS011;74548;47.712;9.272;2024-03-02T04:51:48;2.28;;;1.90;;
84357;SDS011;74548;47.712;9.272;2024-03-02T04:54:13;3.10;;;1.70;;
84357;SDS011;74548;47.712;9.272;2024-03-02T04:56:39;3.33;;;2.20;;
84357;SDS011;74548;47.712;9.272;2024-03-02T04:59:14;2.47;;;2.00;;
84357;SDS011;74548;47.712;9.272;2024-03-02T05:01:43;2.95;;;1.98;;
84357;SDS011;74548;47.712;9.272;2024-03-02T05:04:09;2.95;;;2.17;;
84357;SDS011;74548;47.712;9.272;2024-03-02T05:06:36;2.38;;;1.60;;
84357;SDS011;74548;47.712;9.272;2024-03-02T05:09:03;3.20;;;2.30;;
84357;SDS011;74548;47.712;9.272;2024-03-02T05:11:28;3.10;;;2.00;;
84357;SDS011;74548;47.712;9.272;2024-03-02T05:14:07;3.08;;;2.00;;
84357;SDS011;74548;47.712;9.272;2024-03-02T05:16:33;1.80;;;1.35;;
84357;SDS011;74548;47.712;9.272;2024-03-02T05:18:59;2.78;;;1.80;;
84357;SDS011;74548;47.712;9.272;2024-03-02T05:21:24;2.08;;;1.65;;
84357;SDS011;74548;47.712;9.272;2024-03-02T05:23:50;2.87;;;1.57;;
84357;SDS011;74548;47.712;9.272;2024-03-02T05:26:15;2.63;;;1.97;;
84357;SDS011;74548;47.712;9.272;2024-03-02T05:28:41;2.40;;;1.73;;
84357;SDS011;74548;47.712;9.272;2024-03-02T05:31:09;2.83;;;1.48;;
84357;SDS011;74548;47.712;9.272;2024-03-02T05:33:37;2.80;;;1.80;;
84357;SDS011;74548;47.712;9.272;2024-03-02T05:36:03;2.78;;;1.95;;
84357;SDS011;74548;47.712;9.272;2024-03-02T05:38:29;2.53;;;1.73;;
84357;SDS011;74548;47.712;9.272;2024-03-02T05:40:54;3.13;;;1.75;;
84357;SDS011;74548;47.712;9.272;2024-03-02T05:43:20;3.28;;;1.98;;
84357;SDS011;74548;47.712;9.272;2024-03-02T05:45:45;2.67;;;1.98;;
84357;SDS011;74548;47.712;9.272;2024-03-02T05:50:39;3.03;;;2.13;;
84357;SDS011;74548;47.712;9.272;2024-03-02T05:53:04;2.38;;;1.80;;
84357;SDS011;74548;47.712;9.272;2024-03-02T05:55:30;2.47;;;2.00;;
84357;SDS011;74548;47.712;9.272;2024-03-02T05:57:56;2.40;;;1.75;;
84357;SDS011;74548;47.712;9.272;2024-03-02T06:03:10;2.13;;;1.80;;
84357;SDS011;74548;47.712;9.272;2024-03-02T06:05:35;2.80;;;1.88;;
84357;SDS011;74548;47.712;9.272;2024-03-02T06:08:01;2.77;;;2.07;;
84357;SDS011;74548;47.712;9.272;2024-03-02T06:10:26;2.75;;;1.70;;
84357;SDS011;74548;47.712;9.272;2024-03-02T06:12:51;2.70;;;1.80;;
84357;SDS011;74548;47.712;9.272;2024-03-02T06:15:17;3.05;;;1.90;;
84357;SDS011;74548;47.712;9.272;2024-03-02T06:17:42;2.43;;;1.70;;
84357;SDS011;74548;47.712;9.272;2024-03-02T06:20:07;3.20;;;2.00;;
84357;SDS011;74548;47.712;9.272;2024-03-02T06:22:33;2.97;;;1.85;;
84357;SDS011;74548;47.712;9.272;2024-03-02T06:27:21;2.90;;;2.00;;
84357;SDS011;74548;47.712;9.272;2024-03-02T06:29:47;2.00;;;1.53;;
84357;SDS011;74548;47.712;9.272;2024-03-02T06:32:13;2.25;;;1.45;;
84357;SDS011;74548;47.712;9.272;2024-03-02T06:36:55;3.05;;;2.17;;
84357;SDS011;74548;47.712;9.272;2024-03-02T06:39:21;3.17;;;2.10;;
84357;SDS011;74548;47.712;9.272;2024-03-02T06:41:46;2.53;;;1.80;;
84357;SDS011;74548;47.712;9.272;2024-03-02T06:44:14;3.15;;;1.85;;
84357;SDS011;74548;47.712;9.272;2024-03-02T06:46:39;2.38;;;1.48;;
84357;SDS011;74548;47.712;9.272;2024-03-02T06:49:05;3.00;;;1.80;;
84357;SDS011;74548;47.712;9.272;2024-03-02T06:51:30;2.27;;;1.60;;
84357;SDS011;74548;47.712;9.272;2024-03-02T06:53:55;2.45;;;1.85;;
84357;SDS011;74548;47.712;9.272;2024-03-02T06:56:21;2.65;;;1.63;;
84357;SDS011;74548;47.712;9.272;2024-03-02T06:58:46;2.63;;;1.67;;
84357;SDS011;74548;47.712;9.272;2024-03-02T07:01:12;2.70;;;1.73;;
84357;SDS011;74548;47.712;9.272;2024-03-02T07:03:38;2.65;;;1.73;;
84357;SDS011;74548;47.712;9.272;2024-03-02T07:06:04;2.65;;;1.73;;
84357;SDS011;74548;47.712;9.272;2024-03-02T07:08:30;2.42;;;1.70;;
84357;SDS011;74548;47.712;9.272;2024-03-02T07:10:55;2.42;;;1.65;;
84357;SDS011;74548;47.712;9.272;2024-03-02T07:13:21;3.20;;;1.73;;
84357;SDS011;74548;47.712;9.272;2024-03-02T07:15:47;2.83;;;1.80;;
84357;SDS011;74548;47.712;9.272;2024-03-02T07:18:35;2.25;;;1.42;;
84357;SDS011;74548;47.712;9.272;2024-03-02T07:21:06;2.17;;;1.60;;
84357;SDS011;74548;47.712;9.272;2024-03-02T07:23:32;2.53;;;1.90;;
84357;SDS011;74548;47.712;9.272;2024-03-02T07:25:57;2.67;;;1.60;;
84357;SDS011;74548;47.712;9.272;2024-03-02T07:28:25;2.28;;;1.38;;
84357;SDS011;74548;47.712;9.272;2024-03-02T07:33:12;1.92;;;1.42;;
84357;SDS011;74548;47.712;9.272;2024-03-02T07:35:37;2.40;;;1.40;;
84357;SDS011;74548;47.712;9.272;2024-03-02T07:38:03;2.83;;;1.80;;
84357;SDS011;74548;47.712;9.272;2024-03-02T07:40:28;2.92;;;1.67;;
84357;SDS011;74548;47.712;9.272;2024-03-02T07:42:54;2.25;;;1.50;;
84357;SDS011;74548;47.712;9.272;2024-03-02T07:45:19;2.75;;;1.70;;
84357;SDS011;74548;47.712;9.272;2024-03-02T07:47:45;2.47;;;1.90;;
84357;SDS011;74548;47.712;9.272;2024-03-02T07:50:11;2.72;;;1.70;;
84357;SDS011;74548;47.712;9.272;2024-03-02T07:52:36;2.75;;;2.00;;
84357;SDS011;74548;47.712;9.272;2024-03-02T07:55:02;2.50;;;1.30;;
84357;SDS011;74548;47.712;9.272;2024-03-02T07:57:27;2.97;;;1.70;;
84357;SDS011;74548;47.712;9.272;2024-03-02T07:59:53;2.75;;;1.77;;
84357;SDS011;74548;47.712;9.272;2024-03-02T08:02:18;2.63;;;1.70;;
84357;SDS011;74548;47.712;9.272;2024-03-02T08:04:43;2.40;;;1.60;;
84357;SDS011;74548;47.712;9.272;2024-03-02T08:07:10;2.60;;;1.70;;
84357;SDS011;74548;47.712;9.272;2024-03-02T08:09:36;2.35;;;1.40;;
84357;SDS011;74548;47.712;9.272;2024-03-02T08:12:01;2.92;;;1.52;;
84357;SDS011;74548;47.712;9.272;2024-03-02T08:14:27;2.08;;;1.50;;
84357;SDS011;74548;47.712;9.272;2024-03-02T08:16:52;2.77;;;2.03;;
84357;SDS011;74548;47.712;9.272;2024-03-02T08:19:17;1.97;;;1.30;;
84357;SDS011;74548;47.712;9.272;2024-03-02T08:21:43;3.00;;;1.67;;
84357;SDS011;74548;47.712;9.272;2024-03-02T08:26:22;2.78;;;1.52;;
84357;SDS011;74548;47.712;9.272;2024-03-02T08:28:48;2.55;;;1.58;;
84357;SDS011;74548;47.712;9.272;2024-03-02T08:31:13;2.63;;;1.55;;
84357;SDS011;74548;47.712;9.272;2024-03-02T08:33:39;2.45;;;1.75;;
84357;SDS011;74548;47.712;9.272;2024-03-02T08:36:05;1.85;;;1.20;;
84357;SDS011;74548;47.712;9.272;2024-03-02T08:38:31;2.40;;;1.77;;
84357;SDS011;74548;47.712;9.272;2024-03-02T08:40:56;2.35;;;1.73;;
84357;SDS011;74548;47.712;9.272;2024-03-02T08:43:22;2.90;;;1.55;;
84357;SDS011;74548;47.712;9.272;2024-03-02T08:45:48;2.20;;;1.58;;
84357;SDS011;74548;47.712;9.272;2024-03-02T08:48:14;2.58;;;1.60;;
84357;SDS011;74548;47.712;9.272;2024-03-02T08:50:40;1.70;;;1.20;;
84357;SDS011;74548;47.712;9.272;2024-03-02T08:53:05;2.03;;;1.30;;
84357;SDS011;74548;47.712;9.272;2024-03-02T08:55:31;1.88;;;1.48;;
84357;SDS011;74548;47.712;9.272;2024-03-02T08:57:56;2.33;;;1.40;;
84357;SDS011;74548;47.712;9.272;2024-03-02T09:02:47;2.75;;;1.55;;
84357;SDS011;74548;47.712;9.272;2024-03-02T09:05:13;2.25;;;1.65;;
84357;SDS011;74548;47.712;9.272;2024-03-02T09:07:38;2.30;;;1.42;;
84357;SDS011;74548;47.712;9.272;2024-03-02T09:10:07;2.22;;;1.52;;
84357;SDS011;74548;47.712;9.272;2024-03-02T09:12:33;2.08;;;1.50;;
84357;SDS011;74548;47.712;9.272;2024-03-02T09:15:00;2.38;;;1.45;;
84357;SDS011;74548;47.712;9.272;2024-03-02T09:17:26;2.00;;;1.35;;
84357;SDS011;74548;47.712;9.272;2024-03-02T09:19:51;2.25;;;1.40;;
84357;SDS011;74548;47.712;9.272;2024-03-02T09:22:18;2.00;;;1.30;;
84357;SDS011;74548;47.712;9.272;2024-03-02T09:24:44;2.85;;;1.45;;
84357;SDS011;74548;47.712;9.272;2024-03-02T09:27:09;2.35;;;1.40;;
84357;SDS011;74548;47.712;9.272;2024-03-02T09:29:35;2.08;;;1.30;;
84357;SDS011;74548;47.712;9.272;2024-03-02T09:32:00;2.67;;;1.57;;
84357;SDS011;74548;47.712;9.272;2024-03-02T09:34:25;1.90;;;1.30;;
84357;SDS011;74548;47.712;9.272;2024-03-02T09:36:51;2.22;;;1.27;;
84357;SDS011;74548;47.712;9.272;2024-03-02T09:39:17;2.45;;;1.42;;
84357;SDS011;74548;47.712;9.272;2024-03-02T09:41:43;2.47;;;1.40;;
84357;SDS011;74548;47.712;9.272;2024-03-02T09:44:08;2.08;;;1.40;;
84357;SDS011;74548;47.712;9.272;2024-03-02T09:46:34;2.42;;;1.40;;
84357;SDS011;74548;47.712;9.272;2024-03-02T09:49:01;1.90;;;1.38;;
84357;SDS011;74548;47.712;9.272;2024-03-02T09:51:27;2.22;;;1.30;;
84357;SDS011;74548;47.712;9.272;2024-03-02T09:53:52;2.67;;;1.40;;
84357;SDS011;74548;47.712;9.272;2024-03-02T09:56:20;2.47;;;1.70;;
84357;SDS011;74548;47.712;9.272;2024-03-02T09:58:46;2.60;;;1.60;;
84357;SDS011;74548;47.712;9.272;2024-03-02T10:01:17;1.75;;;1.38;;
84357;SDS011;74548;47.712;9.272;2024-03-02T10:03:43;2.50;;;1.70;;
84357;SDS011;74548;47.712;9.272;2024-03-02T10:06:26;2.63;;;1.70;;
84357;SDS011;74548;47.712;9.272;2024-03-02T10:08:52;2.63;;;1.63;;
84357;SDS011;74548;47.712;9.272;2024-03-02T10:14:14;3.05;;;1.77;;
84357;SDS011;74548;47.712;9.272;2024-03-02T10:16:40;6.25;;;4.30;;
84357;SDS011;74548;47.712;9.272;2024-03-02T10:19:22;9.05;;;5.60;;
84357;SDS011;74548;47.712;9.272;2024-03-02T10:21:49;6.95;;;4.78;;
84357;SDS011;74548;47.712;9.272;2024-03-02T10:24:16;6.60;;;4.88;;
84357;SDS011;74548;47.712;9.272;2024-03-02T10:26:45;6.60;;;5.07;;
84357;SDS011;74548;47.712;9.272;2024-03-02T10:29:10;5.88;;;4.03;;
84357;SDS011;74548;47.712;9.272;2024-03-02T10:31:40;5.53;;;4.00;;
84357;SDS011;74548;47.712;9.272;2024-03-02T10:34:07;5.82;;;4.22;;
84357;SDS011;74548;47.712;9.272;2024-03-02T10:36:33;6.30;;;3.67;;
84357;SDS011;74548;47.712;9.272;2024-03-02T10:39:05;5.68;;;3.33;;
84357;SDS011;74548;47.712;9.272;2024-03-02T10:41:32;4.68;;;3.17;;
84357;SDS011;74548;47.712;9.272;2024-03-02T10:44:02;5.05;;;3.35;;
84357;SDS011;74548;47.712;9.272;2024-03-02T10:48:40;4.30;;;3.10;;
84357;SDS011;74548;47.712;9.272;2024-03-02T10:51:09;4.50;;;3.10;;
84357;SDS011;74548;47.712;9.272;2024-03-02T10:53:34;5.05;;;3.58;;
84357;SDS011;74548;47.712;9.272;2024-03-02T10:55:59;5.23;;;3.10;;
84357;SDS011;74548;47.712;9.272;2024-03-02T10:58:27;4.00;;;2.75;;
84357;SDS011;74548;47.712;9.272;2024-03-02T11:00:58;4.43;;;3.03;;
84357;SDS011;74548;47.712;9.272;2024-03-02T11:03:27;4.03;;;2.70;;
84357;SDS011;74548;47.712;9.272;2024-03-02T11:08:23;4.20;;;2.83;;
84357;SDS011;74548;47.712;9.272;2024-03-02T11:10:50;2.83;;;2.35;;
84357;SDS011;74548;47.712;9.272;2024-03-02T11:13:17;4.00;;;3.05;;
84357;SDS011;74548;47.712;9.272;2024-03-02T11:15:49;4.15;;;2.47;;
84357;SDS011;74548;47.712;9.272;2024-03-02T11:18:19;3.38;;;2.28;;
84357;SDS011;74548;47.712;9.272;2024-03-02T11:20:44;4.05;;;2.63;;
84357;SDS011;74548;47.712;9.272;2024-03-02T11:23:11;2.80;;;2.20;;
84357;SDS011;74548;47.712;9.272;2024-03-02T11:25:37;2.83;;;2.17;;
84357;SDS011;74548;47.712;9.272;2024-03-02T11:28:05;3.05;;;2.50;;
84357;SDS011;74548;47.712;9.272;2024-03-02T11:32:57;3.33;;;2.40;;
84357;SDS011;74548;47.712;9.272;2024-03-02T11:35:33;3.63;;;2.65;;
84357;SDS011;74548;47.712;9.272;2024-03-02T11:37:58;2.70;;;2.08;;
84357;SDS011;74548;47.712;9.272;2024-03-02T11:42:51;3.20;;;2.10;;
84357;SDS011;74548;47.712;9.272;2024-03-02T11:45:17;2.90;;;2.05;;
84357;SDS011;74548;47.712;9.272;2024-03-02T11:50:30;6.15;;;3.35;;
84357;SDS011;74548;47.712;9.272;2024-03-02T11:53:00;6.15;;;3.28;;
84357;SDS011;74548;47.712;9.272;2024-03-02T11:55:26;5.93;;;3.30;;
84357;SDS011;74548;47.712;9.272;2024-03-02T11:57:54;3.50;;;2.40;;
84357;SDS011;74548;47.712;9.272;2024-03-02T12:00:19;4.55;;;2.78;;
84357;SDS011;74548;47.712;9.272;2024-03-02T12:02:46;4.15;;;2.35;;
84357;SDS011;74548;47.712;9.272;2024-03-02T12:05:18;2.75;;;2.10;;
84357;SDS011;74548;47.712;9.272;2024-03-02T12:07:44;2.85;;;1.90;;
84357;SDS011;74548;47.712;9.272;2024-03-02T12:10:11;3.35;;;1.98;;
84357;SDS011;74548;47.712;9.272;2024-03-02T12:12:37;3.80;;;1.90;;
84357;SDS011;74548;47.712;9.272;2024-03-02T12:15:02;2.70;;;1.70;;
84357;SDS011;74548;47.712;9.272;2024-03-02T12:17:28;2.25;;;1.80;;
84357;SDS011;74548;47.712;9.272;2024-03-02T12:19:54;3.33;;;2.00;;
84357;SDS011;74548;47.712;9.272;2024-03-02T12:22:19;3.05;;;1.75;;
84357;SDS011;74548;47.712;9.272;2024-03-02T12:27:10;3.00;;;1.52;;
84357;SDS011;74548;47.712;9.272;2024-03-02T12:29:36;1.98;;;1.10;;
84357;SDS011;74548;47.712;9.272;2024-03-02T12:32:03;2.10;;;1.20;;
84357;SDS011;74548;47.712;9.272;2024-03-02T12:34:29;4.15;;;1.35;;
84357;SDS011;74548;47.712;9.272;2024-03-02T12:36:54;2.30;;;1.42;;
84357;SDS011;74548;47.712;9.272;2024-03-02T12:39:19;1.50;;;1.10;;
84357;SDS011;74548;47.712;9.272;2024-03-02T12:41:46;1.80;;;1.23;;
84357;SDS011;74548;47.712;9.272;2024-03-02T12:44:11;2.13;;;1.00;;
84357;SDS011;74548;47.712;9.272;2024-03-02T12:46:37;1.77;;;1.10;;
84357;SDS011;74548;47.712;9.272;2024-03-02T12:49:09;1.60;;;0.90;;
84357;SDS011;74548;47.712;9.272;2024-03-02T12:51:39;1.70;;;1.10;;
84357;SDS011;74548;47.712;9.272;2024-03-02T12:56:32;1.80;;;1.15;;
84357;SDS011;74548;47.712;9.272;2024-03-02T12:58:58;1.30;;;0.90;;
84357;SDS011;74548;47.712;9.272;2024-03-02T13:03:39;1.23;;;0.70;;
84357;SDS011;74548;47.712;9.272;2024-03-02T13:06:08;1.60;;;0.70;;
84357;SDS011;74548;47.712;9.272;2024-03-02T13:10:59;1.30;;;0.83;;
84357;SDS011;74548;47.712;9.272;2024-03-02T13:13:25;1.45;;;0.90;;
84357;SDS011;74548;47.712;9.272;2024-03-02T13:15:50;1.30;;;0.93;;
84357;SDS011;74548;47.712;9.272;2024-03-02T13:18:20;1.90;;;1.00;;
84357;SDS011;74548;47.712;9.272;2024-03-02T13:20:46;0.95;;;0.73;;
84357;SDS011;74548;47.712;9.272;2024-03-02T13:23:12;1.35;;;0.70;;
84357;SDS011;74548;47.712;9.272;2024-03-02T13:25:37;1.83;;;0.73;;
84357;SDS011;74548;47.712;9.272;2024-03-02T13:28:03;1.20;;;0.90;;
84357;SDS011;74548;47.712;9.272;2024-03-02T13:32:55;0.93;;;0.60;;
84357;SDS011;74548;47.712;9.272;2024-03-02T13:37:38;1.08;;;0.70;;
84357;SDS011;74548;47.712;9.272;2024-03-02T13:40:04;1.63;;;0.88;;
84357;SDS011;74548;47.712;9.272;2024-03-02T13:42:30;0.75;;;0.52;;
84357;SDS011;74548;47.712;9.272;2024-03-02T13:47:26;0.70;;;0.65;;
84357;SDS011;74548;47.712;9.272;2024-03-02T13:49:52;1.08;;;0.73;;
84357;SDS011;74548;47.712;9.272;2024-03-02T13:52:17;1.15;;;0.77;;
84357;SDS011;74548;47.712;9.272;2024-03-02T13:54:44;1.45;;;0.63;;
84357;SDS011;74548;47.712;9.272;2024-03-02T13:57:10;1.13;;;0.77;;
84357;SDS011;74548;47.712;9.272;2024-03-02T13:59:37;0.90;;;0.60;;
84357;SDS011;74548;47.712;9.272;2024-03-02T14:02:03;1.05;;;0.80;;
84357;SDS011;74548;47.712;9.272;2024-03-02T14:04:30;0.82;;;0.60;;
84357;SDS011;74548;47.712;9.272;2024-03-02T14:06:58;1.20;;;0.80;;
84357;SDS011;74548;47.712;9.272;2024-03-02T14:09:23;1.05;;;0.57;;
84357;SDS011;74548;47.712;9.272;2024-03-02T14:11:52;0.90;;;0.60;;
84357;SDS011;74548;47.712;9.272;2024-03-02T14:14:17;0.85;;;0.60;;
84357;SDS011;74548;47.712;9.272;2024-03-02T14:16:43;1.00;;;0.73;;
84357;SDS011;74548;47.712;9.272;2024-03-02T14:19:10;1.00;;;0.60;;
84357;SDS011;74548;47.712;9.272;2024-03-02T14:21:36;1.60;;;0.70;;
84357;SDS011;74548;47.712;9.272;2024-03-02T14:24:02;0.95;;;0.63;;
84357;SDS011;74548;47.712;9.272;2024-03-02T14:26:28;1.13;;;0.70;;
84357;SDS011;74548;47.712;9.272;2024-03-02T14:28:53;1.58;;;0.60;;
84357;SDS011;74548;47.712;9.272;2024-03-02T14:31:19;1.15;;;0.60;;
84357;SDS011;74548;47.712;9.272;2024-03-02T14:33:45;1.98;;;0.70;;
84357;SDS011;74548;47.712;9.272;2024-03-02T14:36:11;1.13;;;0.65;;
84357;SDS011;74548;47.712;9.272;2024-03-02T14:38:37;0.77;;;0.65;;
84357;SDS011;74548;47.712;9.272;2024-03-02T14:41:03;0.95;;;0.55;;
84357;SDS011;74548;47.712;9.272;2024-03-02T14:43:28;1.52;;;0.63;;
84357;SDS011;74548;47.712;9.272;2024-03-02T14:48:10;0.50;;;0.47;;
84357;SDS011;74548;47.712;9.272;2024-03-02T14:50:36;0.85;;;0.50;;
84357;SDS011;74548;47.712;9.272;2024-03-02T14:53:01;0.95;;;0.50;;
84357;SDS011;74548;47.712;9.272;2024-03-02T14:55:27;1.10;;;0.55;;
84357;SDS011;74548;47.712;9.272;2024-03-02T15:00:06;2.55;;;0.52;;
84357;SDS011;74548;47.712;9.272;2024-03-02T15:02:32;0.73;;;0.50;;
84357;SDS011;74548;47.712;9.272;2024-03-02T15:04:58;2.17;;;0.50;;
84357;SDS011;74548;47.712;9.272;2024-03-02T15:07:24;0.70;;;0.43;;
84357;SDS011;74548;47.712;9.272;2024-03-02T15:09:49;0.90;;;0.82;;
84357;SDS011;74548;47.712;9.272;2024-03-02T15:12:15;0.93;;;0.50;;
84357;SDS011;74548;47.712;9.272;2024-03-02T15:14:42;1.90;;;0.60;;
84357;SDS011;74548;47.712;9.272;2024-03-02T15:17:15;0.98;;;0.73;;
84357;SDS011;74548;47.712;9.272;2024-03-02T15:19:44;1.30;;;0.80;;
84357;SDS011;74548;47.712;9.272;2024-03-02T15:22:10;0.98;;;0.50;;
84357;SDS011;74548;47.712;9.272;2024-03-02T15:27:05;0.73;;;0.50;;
84357;SDS011;74548;47.712;9.272;2024-03-02T15:29:33;0.88;;;0.50;;
84357;SDS011;74548;47.712;9.272;2024-03-02T15:31:59;0.75;;;0.43;;
84357;SDS011;74548;47.712;9.272;2024-03-02T15:34:24;0.88;;;0.57;;
84357;SDS011;74548;47.712;9.272;2024-03-02T15:36:50;0.93;;;0.52;;
84357;SDS011;74548;47.712;9.272;2024-03-02T15:39:16;0.90;;;0.50;;
84357;SDS011;74548;47.712;9.272;2024-03-02T15:41:45;0.90;;;0.50;;
84357;SDS011;74548;47.712;9.272;2024-03-02T15:44:10;1.00;;;0.60;;
84357;SDS011;74548;47.712;9.272;2024-03-02T15:46:36;1.00;;;0.50;;
84357;SDS011;74548;47.712;9.272;2024-03-02T15:49:02;2.10;;;0.70;;
84357;SDS011;74548;47.712;9.272;2024-03-02T15:51:27;1.10;;;0.60;;